createdAt,value
2023-03-27T00:00:35.796Z,2.00
2023-03-27T00:03:04.735Z,1.80
2023-03-27T00:05:35.401Z,1.80
2023-03-27T00:08:05.100Z,1.80
2023-03-27T00:10:33.805Z,1.70
2023-03-27T00:13:05.853Z,1.90
2023-03-27T00:15:34.842Z,2.00
2023-03-27T00:18:06.505Z,1.60
2023-03-27T00:20:43.050Z,1.60
2023-03-27T00:23:13.578Z,1.70
2023-03-27T00:25:42.395Z,2.00
2023-03-27T00:28:21.097Z,1.70
2023-03-27T00:30:56.096Z,1.50
2023-03-27T00:33:25.051Z,1.50
2023-03-27T00:35:53.449Z,1.70
2023-03-27T00:38:23.066Z,1.80
2023-03-27T00:40:54.833Z,1.70
2023-03-27T00:43:29.029Z,1.70
2023-03-27T00:46:01.615Z,1.90
2023-03-27T00:48:31.406Z,1.90
2023-03-27T00:51:00.009Z,1.60
2023-03-27T00:53:29.221Z,1.60
2023-03-27T00:56:01.270Z,1.60
2023-03-27T00:58:32.438Z,1.50
2023-03-27T01:01:01.228Z,1.40
2023-03-27T01:03:32.632Z,1.40
2023-03-27T01:06:02.180Z,1.30
2023-03-27T01:08:33.278Z,1.50
2023-03-27T01:11:08.122Z,1.60
2023-03-27T01:13:54.209Z,1.60
2023-03-27T01:16:33.956Z,1.70
2023-03-27T01:19:11.475Z,1.50
2023-03-27T01:21:59.039Z,1.30
2023-03-27T01:24:46.805Z,1.40
2023-03-27T01:27:30.762Z,1.20
2023-03-27T01:30:12.181Z,1.30
2023-03-27T01:33:16.366Z,1.30
2023-03-27T01:35:51.305Z,1.60
2023-03-27T01:38:38.687Z,1.80
2023-03-27T01:41:23.933Z,1.60
2023-03-27T01:44:00.945Z,1.60
2023-03-27T01:46:35.833Z,1.30
2023-03-27T01:49:16.547Z,1.70
2023-03-27T01:51:48.633Z,1.60
2023-03-27T01:54:30.026Z,1.60
2023-03-27T01:57:17.489Z,1.50
2023-03-27T01:59:47.448Z,1.60
2023-03-27T02:02:28.640Z,1.40
2023-03-27T02:05:10.405Z,1.60
2023-03-27T02:07:47.689Z,1.50
2023-03-27T02:10:18.989Z,1.50
2023-03-27T02:13:01.435Z,1.20
2023-03-27T02:15:34.188Z,1.30
2023-03-27T02:18:08.197Z,1.30
2023-03-27T02:20:40.028Z,1.30
2023-03-27T02:23:08.663Z,1.40
2023-03-27T02:25:41.585Z,1.60
2023-03-27T02:28:32.113Z,1.20
2023-03-27T02:31:34.527Z,1.50
2023-03-27T02:34:09.474Z,1.50
2023-03-27T02:37:05.764Z,1.50
2023-03-27T02:39:56.956Z,1.60
2023-03-27T02:42:43.250Z,1.50
2023-03-27T02:45:28.355Z,1.40
2023-03-27T02:48:00.642Z,1.30
2023-03-27T02:50:32.465Z,1.50
2023-03-27T02:53:06.182Z,1.30
2023-03-27T02:55:37.905Z,1.90
2023-03-27T02:58:12.994Z,1.90
2023-03-27T03:00:52.321Z,1.50
2023-03-27T03:03:55.607Z,1.60
2023-03-27T03:06:46.955Z,1.70
2023-03-27T03:09:15.644Z,1.50
2023-03-27T03:11:46.633Z,1.40
2023-03-27T03:14:23.288Z,1.60
2023-03-27T03:16:52.413Z,1.30
2023-03-27T03:19:25.779Z,1.70
2023-03-27T03:21:54.501Z,1.50
2023-03-27T03:24:23.465Z,1.50
2023-03-27T03:26:52.177Z,1.20
2023-03-27T03:29:21.096Z,1.40
2023-03-27T03:32:06.974Z,1.60
2023-03-27T03:34:35.907Z,1.30
2023-03-27T03:37:04.238Z,1.30
2023-03-27T03:39:33.666Z,1.50
2023-03-27T03:42:02.872Z,1.60
2023-03-27T03:44:31.939Z,1.70
2023-03-27T03:47:02.422Z,1.40
2023-03-27T03:49:31.143Z,1.50
2023-03-27T03:52:04.045Z,1.40
2023-03-27T03:54:34.547Z,1.20
2023-03-27T03:57:03.532Z,1.40
2023-03-27T03:59:33.214Z,1.40
2023-03-27T04:02:29.232Z,1.40
2023-03-27T04:05:08.606Z,1.50
2023-03-27T04:07:40.430Z,1.10
2023-03-27T04:10:41.760Z,1.40
2023-03-27T04:13:25.846Z,2.20
2023-03-27T04:16:01.959Z,1.40
2023-03-27T04:18:39.518Z,1.60
2023-03-27T04:21:16.298Z,1.90
2023-03-27T04:23:45.475Z,1.60
2023-03-27T04:26:16.047Z,1.60
2023-03-27T04:29:10.520Z,1.90
2023-03-27T04:31:58.144Z,2.00
2023-03-27T04:34:40.648Z,2.30
2023-03-27T04:37:30.624Z,1.90
2023-03-27T04:40:14.381Z,1.70
2023-03-27T04:42:45.144Z,1.80
2023-03-27T04:45:17.974Z,1.70
2023-03-27T04:47:49.255Z,2.00
2023-03-27T04:50:18.250Z,2.00
2023-03-27T04:52:50.526Z,2.30
2023-03-27T04:55:20.162Z,2.20
2023-03-27T04:57:50.899Z,2.30
2023-03-27T05:00:20.638Z,1.80
2023-03-27T05:02:49.408Z,1.90
2023-03-27T05:05:33.367Z,2.00
2023-03-27T05:08:04.202Z,1.90
2023-03-27T05:10:33.555Z,1.40
2023-03-27T05:13:05.775Z,1.60
2023-03-27T05:15:35.696Z,1.70
2023-03-27T05:18:07.483Z,1.90
2023-03-27T05:20:40.654Z,2.10
2023-03-27T05:23:11.048Z,1.60
2023-03-27T05:25:39.708Z,1.60
2023-03-27T05:28:15.566Z,1.80
2023-03-27T05:30:48.893Z,1.90
2023-03-27T05:33:20.784Z,1.90
2023-03-27T05:35:50.256Z,1.40
2023-03-27T05:38:19.652Z,1.70
2023-03-27T05:41:11.339Z,1.60
2023-03-27T05:43:45.410Z,1.50
2023-03-27T05:46:20.627Z,2.00
2023-03-27T05:49:02.171Z,1.50
2023-03-27T05:51:31.920Z,1.70
2023-03-27T05:54:00.796Z,1.50
2023-03-27T05:56:40.861Z,1.40
2023-03-27T05:59:10.382Z,1.50
2023-03-27T06:01:40.734Z,1.80
2023-03-27T06:04:11.651Z,1.70
2023-03-27T06:07:04.357Z,1.70
2023-03-27T06:09:33.603Z,1.80
2023-03-27T06:12:24.962Z,2.10
2023-03-27T06:15:00.132Z,1.80
2023-03-27T06:17:38.828Z,1.30
2023-03-27T06:20:15.777Z,1.80
2023-03-27T06:22:53.223Z,1.50
2023-03-27T06:25:24.234Z,1.90
2023-03-27T06:27:54.297Z,1.40
2023-03-27T06:30:24.897Z,1.40
2023-03-27T06:33:36.906Z,1.40
2023-03-27T06:36:08.728Z,1.60
2023-03-27T06:38:38.501Z,1.50
2023-03-27T06:41:07.294Z,1.60
2023-03-27T06:43:56.145Z,1.60
2023-03-27T06:46:45.250Z,1.50
2023-03-27T06:49:47.926Z,1.60
2023-03-27T06:54:50.534Z,1.50
2023-03-27T06:57:23.865Z,1.50
2023-03-27T07:00:02.255Z,1.40
2023-03-27T07:02:54.498Z,1.60
2023-03-27T07:05:43.968Z,1.30
2023-03-27T07:08:23.447Z,1.90
2023-03-27T07:11:07.898Z,2.00
2023-03-27T07:13:43.031Z,1.90
2023-03-27T07:16:18.205Z,2.20
2023-03-27T07:18:51.686Z,5.70
2023-03-27T07:21:20.752Z,3.80
2023-03-27T07:25:14.093Z,2.50
2023-03-27T07:27:45.442Z,2.50
2023-03-27T07:30:14.447Z,2.30
2023-03-27T07:32:44.921Z,1.60
2023-03-27T07:35:15.255Z,1.60
2023-03-27T07:38:12.247Z,1.20
2023-03-27T07:41:06.876Z,1.80
2023-03-27T07:44:05.902Z,1.30
2023-03-27T07:46:45.054Z,1.30
2023-03-27T07:49:14.256Z,1.30
2023-03-27T07:51:43.532Z,1.10
2023-03-27T07:54:13.636Z,1.10
2023-03-27T07:56:43.903Z,0.80
2023-03-27T08:02:06.355Z,0.70
2023-03-27T08:04:38.895Z,0.90
2023-03-27T08:07:08.587Z,0.90
2023-03-27T08:09:38.610Z,0.80
2023-03-27T08:12:08.540Z,0.60
2023-03-27T08:14:41.743Z,0.70
2023-03-27T08:17:26.958Z,0.50
2023-03-27T08:19:56.195Z,0.90
2023-03-27T08:22:25.693Z,0.60
2023-03-27T08:25:13.689Z,0.70
2023-03-27T08:27:45.089Z,1.10
2023-03-27T08:30:17.307Z,1.20
2023-03-27T08:32:46.622Z,1.80
2023-03-27T08:35:21.136Z,1.80
2023-03-27T08:37:50.563Z,2.90
2023-03-27T08:40:34.141Z,3.70
2023-03-27T08:43:31.717Z,2.00
2023-03-27T08:46:22.291Z,1.40
2023-03-27T08:49:05.955Z,1.00
2023-03-27T08:51:59.719Z,1.00
2023-03-27T08:54:37.945Z,0.90
2023-03-27T08:57:34.891Z,1.10
2023-03-27T09:00:22.787Z,1.00
2023-03-27T09:02:59.056Z,1.10
2023-03-27T09:06:00.850Z,0.70
2023-03-27T09:08:59.403Z,1.20
2023-03-27T09:14:01.795Z,0.70
2023-03-27T09:16:32.519Z,0.90
2023-03-27T09:19:34.251Z,0.70
2023-03-27T09:22:06.360Z,0.70
2023-03-27T09:24:47.277Z,0.70
2023-03-27T09:27:36.030Z,0.60
2023-03-27T09:30:38.382Z,0.70
2023-03-27T09:33:10.545Z,0.90
2023-03-27T09:35:39.714Z,0.80
2023-03-27T09:38:45.505Z,0.70
2023-03-27T09:41:24.256Z,0.80
2023-03-27T09:44:01.370Z,0.70
2023-03-27T09:46:30.651Z,0.50
2023-03-27T09:49:12.853Z,0.50
2023-03-27T09:51:44.281Z,0.80
2023-03-27T09:54:52.059Z,0.50
2023-03-27T10:00:00.856Z,0.60
2023-03-27T10:02:30.899Z,0.90
2023-03-27T10:05:06.161Z,0.60
2023-03-27T10:07:38.959Z,0.60
2023-03-27T10:10:34.939Z,0.60
2023-03-27T10:13:10.285Z,0.60
2023-03-27T10:15:46.192Z,0.90
2023-03-27T10:18:27.567Z,1.10
2023-03-27T10:21:35.782Z,0.70
2023-03-27T10:24:06.794Z,0.70
2023-03-27T10:27:12.340Z,0.50
2023-03-27T10:29:47.636Z,0.90
2023-03-27T10:32:15.952Z,1.00
2023-03-27T10:35:05.598Z,0.70
2023-03-27T10:37:52.967Z,0.50
2023-03-27T10:40:49.562Z,1.30
2023-03-27T10:43:37.875Z,0.90
2023-03-27T10:46:12.714Z,0.40
2023-03-27T10:49:04.050Z,0.80
2023-03-27T10:51:46.986Z,0.60
2023-03-27T10:54:35.679Z,0.50
2023-03-27T10:57:31.622Z,1.30
2023-03-27T11:00:22.748Z,1.00
2023-03-27T11:03:09.845Z,0.90
2023-03-27T11:05:41.834Z,0.80
2023-03-27T11:08:23.692Z,0.40
2023-03-27T11:10:52.801Z,1.00
2023-03-27T11:13:32.291Z,0.90
2023-03-27T11:16:26.482Z,0.50
2023-03-27T11:19:28.682Z,0.80
2023-03-27T11:22:29.194Z,0.60
2023-03-27T11:25:18.607Z,0.80
2023-03-27T11:27:56.292Z,0.70
2023-03-27T11:30:34.347Z,0.80
2023-03-27T11:33:24.335Z,0.80
2023-03-27T11:36:35.525Z,0.60
2023-03-27T11:39:18.537Z,0.50
2023-03-27T11:41:56.478Z,0.70
2023-03-27T11:44:26.657Z,0.70
2023-03-27T11:47:28.971Z,0.70
2023-03-27T11:50:04.139Z,0.40
2023-03-27T11:52:59.580Z,0.60
2023-03-27T11:56:06.309Z,0.60
2023-03-27T11:58:41.944Z,0.50
2023-03-27T12:01:18.315Z,0.30
2023-03-27T12:03:57.986Z,0.40
2023-03-27T12:07:12.308Z,0.60
2023-03-27T12:10:10.336Z,0.70
2023-03-27T12:13:28.770Z,0.50
2023-03-27T12:19:17.356Z,0.60
2023-03-27T12:22:37.024Z,0.40
2023-03-27T12:25:29.498Z,0.50
2023-03-27T12:28:52.439Z,0.40
2023-03-27T12:31:34.517Z,0.40
2023-03-27T12:34:26.420Z,0.50
2023-03-27T12:36:55.281Z,0.60
2023-03-27T12:39:26.740Z,0.70
2023-03-27T12:41:57.043Z,1.10
2023-03-27T12:45:04.436Z,1.20
2023-03-27T12:47:33.095Z,0.90
2023-03-27T12:50:21.607Z,1.50
2023-03-27T12:52:53.459Z,1.00
2023-03-27T12:55:32.094Z,1.30
2023-03-27T12:58:02.110Z,1.00
2023-03-27T13:01:00.343Z,0.90
2023-03-27T13:04:19.907Z,0.70
2023-03-27T13:07:08.801Z,0.70
2023-03-27T13:10:17.126Z,0.70
2023-03-27T13:13:05.578Z,0.70
2023-03-27T13:15:44.088Z,0.70
2023-03-27T13:18:40.286Z,0.60
2023-03-27T13:21:21.871Z,0.70
2023-03-27T13:24:17.059Z,0.60
2023-03-27T13:27:23.584Z,0.60
2023-03-27T13:29:52.739Z,0.60
2023-03-27T13:32:33.489Z,0.70
2023-03-27T13:35:32.979Z,0.40
2023-03-27T13:38:01.561Z,0.80
2023-03-27T13:40:39.969Z,0.70
2023-03-27T13:43:21.862Z,0.80
2023-03-27T14:01:17.552Z,60.00
2023-03-27T14:04:22.980Z,155.30
2023-03-27T14:07:16.982Z,56.50
2023-03-27T14:10:08.694Z,64.10
2023-03-27T14:12:53.817Z,73.20
2023-03-27T14:15:44.374Z,276.20
2023-03-27T14:18:41.648Z,140.60
2023-03-27T14:21:27.679Z,163.70
2023-03-27T14:24:18.153Z,381.10
2023-03-27T14:26:49.905Z,196.90
2023-03-27T14:29:21.432Z,179.80
2023-03-27T14:31:52.177Z,256.10
2023-03-27T14:34:43.427Z,147.30
2023-03-27T14:37:42.122Z,97.50
2023-03-27T14:40:37.155Z,84.90
2023-03-27T14:43:07.381Z,158.70
2023-03-27T14:45:40.394Z,238.40
2023-03-27T14:48:19.510Z,104.00
2023-03-27T14:50:49.392Z,110.40
2023-03-27T14:53:26.364Z,54.90
2023-03-27T14:56:13.061Z,34.00
2023-03-27T14:59:01.056Z,27.70
2023-03-27T15:01:36.633Z,18.50
2023-03-27T15:04:07.656Z,26.40
2023-03-27T15:06:37.768Z,17.30
2023-03-27T15:09:14.498Z,11.80
2023-03-27T15:12:01.955Z,6.20
2023-03-27T15:14:37.653Z,3.80
2023-03-27T15:17:19.425Z,2.60
2023-03-27T15:19:53.989Z,1.90
2023-03-27T15:22:31.164Z,2.40
2023-03-27T15:25:03.207Z,27.70
2023-03-27T15:27:36.120Z,16.30
2023-03-27T15:30:09.668Z,83.20
2023-03-27T15:32:50.973Z,74.40
2023-03-27T15:35:27.257Z,39.90
2023-03-27T15:37:57.376Z,22.60
2023-03-27T15:40:43.177Z,27.30
2023-03-27T15:43:14.751Z,259.90
2023-03-27T15:45:52.331Z,201.80
2023-03-27T15:48:22.050Z,346.90
2023-03-27T15:51:20.714Z,294.70
2023-03-27T15:53:51.142Z,193.50
2023-03-27T15:56:22.314Z,102.50
2023-03-27T15:58:54.566Z,62.70
2023-03-27T16:01:27.686Z,38.70
2023-03-27T16:03:59.357Z,23.10
2023-03-27T16:06:41.038Z,46.90
2023-03-27T16:09:34.512Z,203.00
2023-03-27T16:12:10.413Z,97.30
2023-03-27T16:14:48.272Z,67.90
2023-03-27T16:17:21.725Z,53.50
2023-03-27T16:19:55.792Z,38.90
2023-03-27T16:22:26.514Z,26.30
2023-03-27T16:24:55.078Z,17.50
2023-03-27T16:27:25.760Z,13.50
2023-03-27T16:29:54.411Z,9.70
2023-03-27T16:32:23.669Z,8.00
2023-03-27T16:34:52.352Z,5.30
2023-03-27T16:37:23.167Z,4.40
2023-03-27T16:39:51.911Z,3.50
2023-03-27T16:42:26.034Z,2.80
2023-03-27T16:44:54.999Z,2.70
2023-03-27T16:47:24.895Z,2.30
2023-03-27T16:50:07.887Z,2.40
2023-03-27T16:52:41.360Z,2.20
2023-03-27T16:55:11.668Z,2.20
2023-03-27T16:57:42.009Z,2.50
2023-03-27T17:00:11.898Z,2.40
2023-03-27T17:02:41.120Z,3.00
2023-03-27T17:05:09.735Z,3.00
2023-03-27T17:07:38.608Z,2.90
2023-03-27T17:10:08.726Z,2.50
2023-03-27T17:12:38.874Z,2.60
2023-03-27T17:15:08.229Z,2.60
2023-03-27T17:17:40.413Z,2.70
2023-03-27T17:20:10.046Z,2.40
2023-03-27T17:22:38.452Z,2.90
2023-03-27T17:25:07.928Z,3.00
2023-03-27T17:27:37.070Z,3.40
2023-03-27T17:30:06.992Z,3.30
2023-03-27T17:32:47.069Z,3.30
2023-03-27T17:35:15.914Z,3.40
2023-03-27T17:37:44.984Z,2.90
2023-03-27T17:40:13.474Z,3.20
2023-03-27T17:42:42.488Z,3.80
2023-03-27T17:45:11.814Z,3.50
2023-03-27T17:47:42.096Z,2.90
2023-03-27T17:50:10.806Z,2.40
2023-03-27T17:52:39.648Z,2.40
2023-03-27T17:55:10.826Z,2.30
2023-03-27T17:57:39.609Z,2.80
2023-03-27T18:00:09.737Z,2.50
2023-03-27T18:02:41.821Z,2.20
2023-03-27T18:05:10.157Z,1.70
2023-03-27T18:07:38.537Z,2.50
2023-03-27T18:10:17.355Z,2.70
2023-03-27T18:12:46.947Z,2.20
2023-03-27T18:15:15.891Z,2.60
2023-03-27T18:17:45.532Z,2.40
2023-03-27T18:20:14.273Z,2.20
2023-03-27T18:22:42.624Z,2.20
2023-03-27T18:25:12.168Z,2.30
2023-03-27T18:27:40.644Z,2.40
2023-03-27T18:30:12.477Z,2.70
2023-03-27T18:32:42.877Z,2.60
2023-03-27T18:35:16.792Z,2.70
2023-03-27T18:37:46.987Z,2.30
2023-03-27T18:40:16.237Z,1.70
2023-03-27T18:43:04.644Z,1.30
2023-03-27T18:45:34.728Z,1.10
2023-03-27T18:48:03.783Z,0.90
2023-03-27T18:50:32.627Z,0.90
2023-03-27T18:53:01.414Z,0.70
2023-03-27T18:55:29.998Z,0.70
2023-03-27T18:57:58.508Z,0.70
2023-03-27T19:00:27.041Z,0.60
2023-03-27T19:02:56.930Z,0.60
2023-03-27T19:05:25.672Z,0.70
2023-03-27T19:07:57.828Z,0.70
2023-03-27T19:10:27.069Z,0.50
2023-03-27T19:13:16.293Z,0.60
2023-03-27T19:16:13.986Z,0.70
2023-03-27T19:19:10.911Z,0.70
2023-03-27T19:22:09.974Z,0.70
2023-03-27T19:24:43.314Z,0.90
2023-03-27T19:27:23.460Z,1.20
2023-03-27T19:29:53.800Z,1.00
2023-03-27T19:32:24.384Z,1.20
2023-03-27T19:34:52.903Z,1.20
2023-03-27T19:37:21.494Z,1.40
2023-03-27T19:41:22.347Z,1.50
2023-03-27T19:43:50.945Z,1.20
2023-03-27T19:46:20.046Z,1.50
2023-03-27T19:48:53.282Z,1.90
2023-03-27T19:51:38.404Z,1.60
2023-03-27T19:54:10.560Z,1.70
2023-03-27T19:56:39.528Z,1.30
2023-03-27T19:59:09.811Z,1.70
2023-03-27T20:01:44.366Z,1.40
2023-03-27T20:04:13.101Z,1.50
2023-03-27T20:06:41.714Z,1.60
2023-03-27T20:09:12.713Z,2.20
2023-03-27T20:11:44.071Z,2.10
2023-03-27T20:14:12.623Z,2.60
2023-03-27T20:16:43.026Z,2.20
2023-03-27T20:19:16.065Z,1.60
2023-03-27T20:21:46.904Z,1.80
2023-03-27T20:24:18.457Z,1.80
2023-03-27T20:26:57.332Z,2.30
2023-03-27T20:29:28.938Z,2.10
2023-03-27T20:31:57.349Z,2.20
2023-03-27T20:34:26.110Z,1.80
2023-03-27T20:36:54.992Z,1.80
2023-03-27T20:39:50.028Z,2.00
2023-03-27T20:42:23.224Z,1.80
2023-03-27T20:44:55.378Z,1.80
2023-03-27T20:47:24.474Z,1.90
2023-03-27T20:49:52.859Z,2.00
2023-03-27T20:52:22.948Z,2.00
2023-03-27T20:54:51.844Z,1.80
2023-03-27T20:57:22.670Z,2.00
2023-03-27T20:59:51.561Z,2.10
2023-03-27T21:02:20.559Z,1.60
2023-03-27T21:04:48.901Z,2.00
2023-03-27T21:07:17.463Z,2.10
2023-03-27T21:09:47.512Z,1.70
2023-03-27T21:12:16.435Z,1.70
2023-03-27T21:14:44.746Z,1.80
2023-03-27T21:17:13.448Z,2.00
2023-03-27T21:19:43.082Z,1.90
2023-03-27T21:22:15.161Z,1.80
2023-03-27T21:24:44.532Z,1.70
2023-03-27T21:27:12.882Z,1.40
2023-03-27T21:29:46.056Z,1.90
2023-03-27T21:32:14.762Z,2.20
2023-03-27T21:34:43.356Z,1.70
2023-03-27T21:37:11.745Z,1.60
2023-03-27T21:39:40.799Z,2.20
2023-03-27T21:42:10.545Z,1.50
2023-03-27T21:44:41.226Z,2.00
2023-03-27T21:47:09.452Z,1.90
2023-03-27T21:49:38.807Z,1.90
2023-03-27T21:52:07.270Z,2.20
2023-03-27T21:54:37.680Z,2.00
2023-03-27T21:57:06.111Z,2.10
2023-03-27T21:59:34.966Z,2.00
2023-03-27T22:02:03.885Z,2.20
2023-03-27T22:04:32.289Z,2.10
2023-03-27T22:07:02.363Z,2.10
2023-03-27T22:09:31.130Z,1.90
2023-03-27T22:11:59.358Z,1.90
2023-03-27T22:14:32.217Z,1.70
2023-03-27T22:17:01.134Z,2.00
2023-03-27T22:19:30.652Z,1.90
2023-03-27T22:22:01.994Z,1.80
2023-03-27T22:24:30.534Z,1.90
2023-03-27T22:26:58.856Z,1.90
2023-03-27T22:29:28.289Z,1.90
2023-03-27T22:31:56.808Z,1.80
2023-03-27T22:34:26.857Z,1.20
2023-03-27T22:36:55.150Z,1.50
2023-03-27T22:39:23.780Z,1.70
2023-03-27T22:41:52.569Z,1.80
2023-03-27T22:44:21.695Z,1.50
2023-03-27T22:46:51.528Z,1.30
2023-03-27T22:49:19.895Z,1.50
2023-03-27T22:51:48.272Z,1.70
2023-03-27T22:54:19.418Z,1.80
2023-03-27T22:56:48.194Z,1.40
2023-03-27T22:59:22.836Z,1.20
2023-03-27T23:01:51.941Z,1.50
2023-03-27T23:04:20.164Z,1.70
2023-03-27T23:06:48.883Z,1.40
2023-03-27T23:09:17.902Z,1.30
2023-03-27T23:11:47.353Z,1.40
2023-03-27T23:14:17.276Z,1.30
2023-03-27T23:16:46.220Z,1.50
2023-03-27T23:19:14.496Z,1.40
2023-03-27T23:21:48.995Z,1.60
2023-03-27T23:24:17.354Z,1.50
2023-03-27T23:26:47.240Z,1.20
2023-03-27T23:29:15.656Z,1.40
2023-03-27T23:31:43.937Z,1.50
2023-03-27T23:34:12.287Z,1.50
2023-03-27T23:36:40.888Z,1.50
2023-03-27T23:39:11.989Z,1.60
2023-03-27T23:41:40.674Z,1.50
2023-03-27T23:44:08.957Z,1.50
2023-03-27T23:46:38.708Z,1.70
2023-03-27T23:49:06.897Z,1.80
2023-03-27T23:51:38.498Z,1.40
2023-03-27T23:54:07.547Z,1.50
2023-03-27T23:56:36.179Z,1.50
2023-03-27T23:59:04.519Z,1.80
